createdAt,value
2023-03-29T00:01:03.184Z,5.70
2023-03-29T00:03:34.019Z,6.20
2023-03-29T00:06:03.956Z,6.20
2023-03-29T00:08:34.148Z,4.73
2023-03-29T00:11:02.791Z,5.77
2023-03-29T00:13:31.432Z,4.90
2023-03-29T00:15:59.820Z,5.23
2023-03-29T00:18:28.344Z,5.37
2023-03-29T00:20:57.242Z,5.37
2023-03-29T00:23:25.715Z,6.23
2023-03-29T00:25:56.418Z,6.20
2023-03-29T00:28:25.054Z,5.30
2023-03-29T00:30:53.515Z,7.20
2023-03-29T00:33:22.840Z,6.20
2023-03-29T00:35:51.566Z,6.27
2023-03-29T00:38:19.970Z,6.63
2023-03-29T00:40:48.908Z,7.33
2023-03-29T00:43:18.799Z,6.70
2023-03-29T00:45:47.282Z,6.23
2023-03-29T00:48:18.817Z,6.97
2023-03-29T00:50:50.176Z,6.30
2023-03-29T00:53:21.461Z,6.63
2023-03-29T00:55:52.605Z,5.80
2023-03-29T00:58:25.036Z,7.37
2023-03-29T01:00:55.742Z,8.50
2023-03-29T01:03:28.825Z,7.27
2023-03-29T01:06:00.191Z,8.20
2023-03-29T01:08:30.632Z,7.47
2023-03-29T01:11:00.720Z,9.07
2023-03-29T01:13:35.889Z,9.70
2023-03-29T01:16:05.131Z,8.13
2023-03-29T01:18:34.843Z,7.50
2023-03-29T01:21:12.579Z,9.47
2023-03-29T01:23:46.902Z,8.50
2023-03-29T01:26:18.943Z,8.77
2023-03-29T01:28:52.466Z,8.23
2023-03-29T01:31:23.388Z,9.67
2023-03-29T01:33:53.543Z,9.90
2023-03-29T01:36:27.472Z,8.73
2023-03-29T01:38:58.786Z,10.13
2023-03-29T01:41:31.930Z,10.30
2023-03-29T01:44:05.207Z,9.37
2023-03-29T01:46:35.515Z,9.20
2023-03-29T01:49:06.056Z,9.07
2023-03-29T01:51:38.041Z,9.57
2023-03-29T01:54:08.036Z,11.30
2023-03-29T01:56:39.124Z,10.80
2023-03-29T01:59:11.336Z,12.83
2023-03-29T02:01:42.513Z,10.67
2023-03-29T02:04:13.219Z,11.00
2023-03-29T02:06:42.964Z,10.87
2023-03-29T02:09:11.826Z,9.47
2023-03-29T02:11:40.421Z,12.63
2023-03-29T02:14:10.984Z,12.90
2023-03-29T02:16:40.394Z,10.57
2023-03-29T02:19:10.710Z,9.87
2023-03-29T02:21:42.216Z,10.80
2023-03-29T02:24:13.344Z,10.03
2023-03-29T02:26:41.865Z,11.20
2023-03-29T02:29:12.310Z,9.73
2023-03-29T02:31:42.926Z,10.27
2023-03-29T02:34:18.077Z,9.30
2023-03-29T02:36:48.214Z,8.77
2023-03-29T02:39:17.838Z,9.87
2023-03-29T02:41:48.242Z,9.83
2023-03-29T02:44:19.459Z,9.90
2023-03-29T02:46:49.663Z,11.20
2023-03-29T02:49:18.323Z,9.63
2023-03-29T02:51:48.760Z,10.20
2023-03-29T02:54:19.505Z,14.07
2023-03-29T02:56:49.826Z,12.53
2023-03-29T02:59:22.581Z,12.10
2023-03-29T03:01:52.561Z,11.17
2023-03-29T03:04:21.710Z,12.50
2023-03-29T03:06:50.351Z,13.83
2023-03-29T03:09:19.194Z,13.07
2023-03-29T03:11:47.570Z,12.17
2023-03-29T03:14:16.740Z,12.27
2023-03-29T03:16:46.663Z,12.60
2023-03-29T03:19:15.121Z,13.70
2023-03-29T03:21:43.653Z,11.83
2023-03-29T03:24:12.029Z,12.13
2023-03-29T03:26:40.429Z,12.03
2023-03-29T03:29:08.861Z,13.10
2023-03-29T03:31:37.295Z,11.00
2023-03-29T03:34:07.037Z,11.17
2023-03-29T03:36:35.460Z,12.37
2023-03-29T03:39:05.812Z,10.27
2023-03-29T03:41:35.111Z,11.60
2023-03-29T03:44:03.856Z,10.10
2023-03-29T03:46:32.236Z,10.47
2023-03-29T03:49:00.605Z,9.80
2023-03-29T03:51:30.391Z,9.63
2023-03-29T03:53:58.779Z,10.83
2023-03-29T03:56:29.933Z,10.20
2023-03-29T03:58:58.415Z,9.37
2023-03-29T04:01:27.326Z,8.10
2023-03-29T04:03:55.876Z,7.80
2023-03-29T04:06:25.551Z,6.97
2023-03-29T04:08:55.294Z,8.13
2023-03-29T04:11:23.814Z,7.40
2023-03-29T04:13:52.230Z,6.97
2023-03-29T04:16:21.075Z,7.07
2023-03-29T04:18:49.646Z,7.43
2023-03-29T04:21:19.976Z,7.10
2023-03-29T04:23:49.558Z,6.83
2023-03-29T04:26:19.372Z,6.43
2023-03-29T04:28:47.794Z,8.73
2023-03-29T04:31:16.931Z,7.00
2023-03-29T04:33:46.803Z,7.83
2023-03-29T04:36:15.998Z,6.30
2023-03-29T04:38:47.349Z,6.67
2023-03-29T04:41:16.382Z,5.90
2023-03-29T04:43:46.473Z,8.03
2023-03-29T04:46:15.251Z,6.50
2023-03-29T04:48:43.823Z,7.13
2023-03-29T04:51:12.765Z,7.43
2023-03-29T04:53:41.733Z,8.03
2023-03-29T04:56:10.621Z,7.13
2023-03-29T04:58:39.007Z,8.50
2023-03-29T05:01:09.142Z,8.80
2023-03-29T05:03:37.583Z,9.20
2023-03-29T05:06:07.238Z,8.83
2023-03-29T05:08:38.414Z,10.00
2023-03-29T05:11:07.829Z,8.97
2023-03-29T05:13:36.635Z,8.53
2023-03-29T05:16:05.526Z,11.07
2023-03-29T05:18:35.691Z,8.40
2023-03-29T05:21:04.467Z,8.87
2023-03-29T05:23:33.133Z,8.43
2023-03-29T05:26:01.600Z,9.30
2023-03-29T05:28:29.987Z,9.40
2023-03-29T05:31:02.250Z,8.43
2023-03-29T05:33:30.922Z,8.23
2023-03-29T05:36:04.662Z,8.83
2023-03-29T05:38:33.938Z,8.77
2023-03-29T05:41:02.848Z,10.03
2023-03-29T05:43:31.691Z,8.73
2023-03-29T05:46:00.338Z,10.47
2023-03-29T05:48:29.960Z,10.80
2023-03-29T05:50:59.136Z,8.43
2023-03-29T05:53:28.954Z,7.90
2023-03-29T05:55:57.619Z,7.97
2023-03-29T05:58:26.664Z,8.87
2023-03-29T06:00:55.222Z,8.20
2023-03-29T06:03:25.554Z,7.90
2023-03-29T06:05:57.942Z,7.17
2023-03-29T06:08:27.668Z,6.83
2023-03-29T06:11:04.517Z,7.80
2023-03-29T06:13:34.654Z,7.40
2023-03-29T06:16:04.316Z,6.20
2023-03-29T06:18:32.752Z,7.63
2023-03-29T06:21:03.065Z,6.30
2023-03-29T06:23:32.224Z,6.80
2023-03-29T06:26:02.122Z,5.93
2023-03-29T06:28:30.657Z,8.23
2023-03-29T06:31:03.267Z,6.47
2023-03-29T06:33:34.144Z,6.20
2023-03-29T06:36:03.411Z,5.50
2023-03-29T06:38:32.075Z,6.33
2023-03-29T06:41:06.047Z,6.33
2023-03-29T06:43:34.889Z,4.90
2023-03-29T06:46:03.790Z,3.73
2023-03-29T06:48:32.651Z,2.47
2023-03-29T06:51:01.379Z,3.53
2023-03-29T06:53:30.709Z,4.80
2023-03-29T06:55:59.894Z,4.50
2023-03-29T06:58:29.672Z,4.07
2023-03-29T07:01:02.029Z,2.53
2023-03-29T07:03:30.846Z,2.77
2023-03-29T07:06:03.926Z,3.60
2023-03-29T07:08:32.499Z,4.57
2023-03-29T07:11:01.554Z,2.23
2023-03-29T07:13:33.113Z,6.30
2023-03-29T07:16:01.595Z,3.27
2023-03-29T07:18:30.007Z,4.50
2023-03-29T07:20:58.484Z,4.37
2023-03-29T07:23:26.902Z,3.63
2023-03-29T07:25:55.741Z,3.50
2023-03-29T07:28:24.393Z,3.43
2023-03-29T07:30:54.995Z,3.67
2023-03-29T07:33:23.497Z,4.03
2023-03-29T07:35:52.027Z,5.00
2023-03-29T07:38:20.558Z,3.93
2023-03-29T07:40:49.174Z,5.93
2023-03-29T07:43:18.339Z,4.00
2023-03-29T07:45:46.836Z,6.20
2023-03-29T07:48:17.835Z,4.43
2023-03-29T07:50:46.822Z,5.10
2023-03-29T07:53:15.215Z,2.63
2023-03-29T07:55:47.657Z,3.00
2023-03-29T07:58:16.798Z,5.53
2023-03-29T08:00:45.247Z,6.37
2023-03-29T08:03:14.180Z,5.37
2023-03-29T08:05:44.092Z,10.00
2023-03-29T08:08:14.072Z,5.13
2023-03-29T08:10:42.733Z,6.43
2023-03-29T08:13:11.851Z,4.20
2023-03-29T08:15:45.419Z,4.67
2023-03-29T08:18:14.025Z,6.73
2023-03-29T08:20:43.828Z,2.87
2023-03-29T08:23:12.221Z,3.70
2023-03-29T08:25:40.623Z,5.10
2023-03-29T08:28:09.096Z,6.07
2023-03-29T08:30:37.517Z,7.07
2023-03-29T08:33:06.239Z,5.60
2023-03-29T08:35:34.723Z,4.83
2023-03-29T08:38:04.575Z,4.17
2023-03-29T08:40:33.002Z,10.77
2023-03-29T08:43:14.205Z,7.57
2023-03-29T08:45:49.714Z,12.27
2023-03-29T08:48:23.333Z,4.37
2023-03-29T08:50:53.772Z,4.00
2023-03-29T08:53:26.371Z,3.67
2023-03-29T08:55:55.301Z,9.93
2023-03-29T08:58:25.978Z,8.23
2023-03-29T09:00:55.632Z,8.47
2023-03-29T09:03:25.325Z,6.73
2023-03-29T09:05:56.440Z,6.93
2023-03-29T09:08:26.713Z,12.73
2023-03-29T09:11:04.334Z,29.13
2023-03-29T09:13:36.736Z,15.37
2023-03-29T09:16:08.457Z,7.83
2023-03-29T09:18:42.044Z,5.80
2023-03-29T09:21:14.647Z,12.63
2023-03-29T09:23:52.636Z,27.07
2023-03-29T09:26:26.404Z,17.07
2023-03-29T09:29:00.050Z,10.03
2023-03-29T09:31:31.705Z,7.80
2023-03-29T09:34:01.100Z,29.43
2023-03-29T09:36:33.017Z,22.17
2023-03-29T09:39:02.835Z,13.80
2023-03-29T09:41:33.810Z,9.90
2023-03-29T09:44:04.110Z,33.07
2023-03-29T09:46:36.388Z,27.03
2023-03-29T09:49:06.248Z,19.30
2023-03-29T09:51:35.252Z,16.00
2023-03-29T09:54:05.150Z,45.87
2023-03-29T09:56:33.694Z,31.53
2023-03-29T09:59:02.096Z,18.67
2023-03-29T10:01:37.218Z,29.33
2023-03-29T10:04:07.691Z,41.30
2023-03-29T10:06:36.900Z,30.10
2023-03-29T10:09:14.829Z,16.03
2023-03-29T10:11:46.737Z,34.60
2023-03-29T10:14:18.076Z,41.50
2023-03-29T10:16:47.669Z,26.40
2023-03-29T10:19:20.564Z,16.80
2023-03-29T10:21:50.059Z,44.63
2023-03-29T10:24:22.354Z,45.10
2023-03-29T10:26:55.382Z,38.97
2023-03-29T10:29:24.701Z,62.50
2023-03-29T10:31:53.708Z,43.10
2023-03-29T10:34:26.055Z,37.07
2023-03-29T10:36:57.535Z,52.90
2023-03-29T10:39:29.251Z,31.33
2023-03-29T10:41:57.872Z,24.43
2023-03-29T10:44:29.764Z,42.47
2023-03-29T10:47:08.901Z,34.87
2023-03-29T10:49:42.174Z,27.90
2023-03-29T10:52:11.101Z,36.67
2023-03-29T10:54:40.914Z,33.10
2023-03-29T10:57:10.468Z,25.87
2023-03-29T10:59:42.472Z,38.97
2023-03-29T11:02:24.358Z,30.90
2023-03-29T11:04:59.347Z,22.20
2023-03-29T11:07:32.940Z,34.40
2023-03-29T11:10:06.754Z,37.23
2023-03-29T11:12:39.302Z,42.97
2023-03-29T11:15:20.117Z,66.33
2023-03-29T11:17:57.008Z,76.13
2023-03-29T11:20:31.158Z,82.50
2023-03-29T11:23:02.111Z,88.97
2023-03-29T11:25:35.665Z,101.30
2023-03-29T11:28:08.077Z,99.03
2023-03-29T11:30:41.634Z,89.20
2023-03-29T11:33:15.133Z,93.03
2023-03-29T11:35:48.136Z,98.87
2023-03-29T11:38:20.540Z,104.80
2023-03-29T11:40:55.488Z,101.03
2023-03-29T11:43:27.762Z,102.17
2023-03-29T11:45:57.819Z,106.93
2023-03-29T11:48:29.926Z,108.10
2023-03-29T11:51:00.218Z,107.80
2023-03-29T11:53:31.231Z,107.23
2023-03-29T11:56:04.695Z,114.15
2023-03-29T11:58:38.281Z,119.17
2023-03-29T12:01:09.347Z,110.10
2023-03-29T12:03:40.157Z,107.60
2023-03-29T12:06:12.475Z,95.93
2023-03-29T12:08:43.183Z,81.90
2023-03-29T12:11:16.148Z,85.03
2023-03-29T12:13:45.896Z,85.50
2023-03-29T12:16:17.655Z,103.70
2023-03-29T12:18:47.555Z,103.87
2023-03-29T12:21:17.915Z,96.63
2023-03-29T12:23:47.365Z,99.22
2023-03-29T12:26:22.928Z,103.13
2023-03-29T12:29:07.300Z,103.17
2023-03-29T12:31:39.580Z,100.93
2023-03-29T12:34:16.908Z,71.27
2023-03-29T12:36:52.137Z,33.90
2023-03-29T12:39:21.620Z,53.37
2023-03-29T12:41:53.476Z,38.90
2023-03-29T12:44:23.639Z,44.47
2023-03-29T12:46:53.899Z,76.97
2023-03-29T12:49:27.457Z,97.03
2023-03-29T12:51:57.458Z,110.97
2023-03-29T12:54:28.168Z,114.50
2023-03-29T12:57:00.355Z,123.20
2023-03-29T12:59:36.160Z,128.90
2023-03-29T13:02:08.682Z,106.17
2023-03-29T13:04:50.182Z,92.67
2023-03-29T13:07:29.997Z,105.03
2023-03-29T13:09:58.992Z,107.43
2023-03-29T13:12:32.159Z,98.10
2023-03-29T13:15:02.884Z,96.93
2023-03-29T13:17:36.133Z,101.77
2023-03-29T13:20:20.520Z,112.80
2023-03-29T13:22:53.749Z,117.10
2023-03-29T13:25:31.201Z,102.37
2023-03-29T13:28:04.479Z,82.27
2023-03-29T13:30:42.805Z,80.40
2023-03-29T13:33:18.939Z,91.17
2023-03-29T13:35:52.509Z,77.57
2023-03-29T13:38:23.031Z,49.37
2023-03-29T13:41:02.374Z,29.00
2023-03-29T13:43:51.012Z,58.37
2023-03-29T13:46:26.386Z,108.13
2023-03-29T13:48:59.434Z,136.67
2023-03-29T13:51:40.224Z,108.50
2023-03-29T13:54:15.193Z,97.83
2023-03-29T13:56:57.116Z,113.20
2023-03-29T13:59:30.363Z,125.60
2023-03-29T14:02:00.542Z,112.37
2023-03-29T14:04:31.538Z,116.57
2023-03-29T14:06:59.951Z,126.63
2023-03-29T14:09:31.178Z,133.57
2023-03-29T14:12:00.415Z,139.90
2023-03-29T14:14:32.897Z,133.30
2023-03-29T14:17:02.690Z,139.33
2023-03-29T14:19:33.046Z,138.45
2023-03-29T14:22:02.164Z,131.80
2023-03-29T14:24:36.672Z,133.07
2023-03-29T14:27:06.259Z,132.90
2023-03-29T14:29:36.719Z,134.85
2023-03-29T14:32:12.668Z,134.65
2023-03-29T14:34:41.223Z,125.40
2023-03-29T14:37:12.313Z,118.32
2023-03-29T14:39:42.234Z,117.35
2023-03-29T14:42:14.085Z,110.53
2023-03-29T14:44:44.942Z,102.80
2023-03-29T14:47:17.714Z,103.03
2023-03-29T14:49:46.994Z,106.95
2023-03-29T14:52:16.521Z,100.45
2023-03-29T14:54:47.170Z,87.68
2023-03-29T14:57:18.597Z,82.93
2023-03-29T14:59:55.815Z,83.93
2023-03-29T15:02:25.031Z,71.45
2023-03-29T15:04:57.850Z,57.15
2023-03-29T15:07:27.104Z,58.70
2023-03-29T15:09:55.776Z,68.60
2023-03-29T15:12:24.178Z,79.88
2023-03-29T15:14:54.602Z,73.55
2023-03-29T15:17:36.269Z,78.68
2023-03-29T15:20:18.018Z,82.53
2023-03-29T15:23:04.087Z,79.00
2023-03-29T15:25:36.475Z,82.10
2023-03-29T15:28:04.944Z,84.70
2023-03-29T15:30:36.621Z,85.47
2023-03-29T15:33:16.434Z,82.07
2023-03-29T15:35:48.302Z,74.43
2023-03-29T15:38:16.966Z,78.30
2023-03-29T15:40:45.624Z,72.38
2023-03-29T15:43:14.272Z,75.47
2023-03-29T15:45:45.430Z,69.30
2023-03-29T15:48:16.768Z,69.65
2023-03-29T15:50:45.742Z,63.08
2023-03-29T15:53:15.811Z,61.13
2023-03-29T15:55:45.687Z,61.65
2023-03-29T15:58:15.779Z,60.33
2023-03-29T16:00:47.735Z,65.35
2023-03-29T16:03:17.079Z,56.40
2023-03-29T16:05:46.037Z,60.03
2023-03-29T16:08:14.854Z,58.70
2023-03-29T16:10:44.873Z,53.53
2023-03-29T16:13:14.983Z,57.90
2023-03-29T16:15:43.891Z,54.92
2023-03-29T16:18:13.693Z,52.13
2023-03-29T16:20:42.495Z,50.60
2023-03-29T16:23:11.524Z,49.97
2023-03-29T16:25:41.030Z,47.53
2023-03-29T16:28:10.142Z,47.45
2023-03-29T16:30:39.485Z,46.33
2023-03-29T16:33:08.657Z,42.83
2023-03-29T16:35:40.117Z,47.95
2023-03-29T16:38:09.185Z,41.80
2023-03-29T16:40:38.409Z,40.65
2023-03-29T16:43:07.646Z,42.78
2023-03-29T16:45:36.365Z,36.65
2023-03-29T16:48:05.091Z,40.83
2023-03-29T16:50:33.570Z,39.35
2023-03-29T16:53:03.424Z,35.60
2023-03-29T16:55:31.915Z,34.80
2023-03-29T16:58:00.331Z,32.33
2023-03-29T17:00:29.198Z,25.27
2023-03-29T17:02:57.650Z,21.60
2023-03-29T17:05:26.494Z,20.33
2023-03-29T17:07:55.615Z,18.93
2023-03-29T17:10:25.511Z,18.43
2023-03-29T17:12:53.911Z,19.70
2023-03-29T17:15:22.310Z,19.17
2023-03-29T17:17:50.727Z,18.30
2023-03-29T17:20:19.217Z,19.63
2023-03-29T17:22:49.556Z,18.83
2023-03-29T17:25:18.069Z,17.90
2023-03-29T17:27:47.890Z,22.80
2023-03-29T17:30:17.234Z,19.30
2023-03-29T17:32:45.847Z,20.70
2023-03-29T17:35:14.543Z,21.77
2023-03-29T17:37:43.039Z,21.53
2023-03-29T17:40:13.798Z,22.03
2023-03-29T17:42:42.357Z,23.20
2023-03-29T17:45:13.345Z,24.03
2023-03-29T17:47:41.822Z,21.37
2023-03-29T17:50:11.179Z,22.13
2023-03-29T17:52:40.468Z,24.47
2023-03-29T17:55:11.214Z,21.83
2023-03-29T17:57:39.833Z,23.87
2023-03-29T18:00:10.689Z,21.17
2023-03-29T18:02:41.256Z,24.40
2023-03-29T18:05:10.389Z,27.80
2023-03-29T18:07:39.117Z,24.90
2023-03-29T18:10:08.715Z,27.83
2023-03-29T18:12:37.339Z,29.60
2023-03-29T18:15:06.353Z,29.97
2023-03-29T18:17:35.856Z,29.90
2023-03-29T18:20:09.916Z,30.13
2023-03-29T18:22:38.352Z,31.13
2023-03-29T18:25:07.479Z,33.17
2023-03-29T18:27:36.014Z,29.67
2023-03-29T18:30:04.503Z,32.80
2023-03-29T18:32:32.915Z,38.90
2023-03-29T18:35:02.569Z,30.47
2023-03-29T18:37:32.332Z,32.00
2023-03-29T18:40:02.069Z,33.67
2023-03-29T18:42:30.783Z,31.97
2023-03-29T18:44:59.339Z,30.43
2023-03-29T18:47:27.762Z,31.47
2023-03-29T18:49:56.189Z,32.93
2023-03-29T18:52:24.604Z,28.73
2023-03-29T18:54:54.392Z,28.37
2023-03-29T18:57:22.873Z,24.73
2023-03-29T18:59:51.341Z,28.23
2023-03-29T19:02:19.783Z,27.00
2023-03-29T19:04:48.367Z,26.10
2023-03-29T19:07:17.762Z,21.87
2023-03-29T19:09:46.287Z,24.03
2023-03-29T19:12:16.070Z,20.03
2023-03-29T19:14:44.459Z,21.43
2023-03-29T19:17:12.833Z,22.10
2023-03-29T19:19:41.369Z,18.63
2023-03-29T19:22:09.779Z,20.70
2023-03-29T19:24:38.272Z,18.80
2023-03-29T19:27:09.246Z,19.87
2023-03-29T19:29:41.098Z,18.10
2023-03-29T19:32:09.525Z,18.53
2023-03-29T19:34:37.991Z,17.17
2023-03-29T19:37:06.466Z,13.63
2023-03-29T19:39:35.416Z,18.87
2023-03-29T19:42:04.004Z,18.43
2023-03-29T19:44:33.705Z,14.33
2023-03-29T19:47:03.554Z,16.27
2023-03-29T19:49:32.465Z,12.40
2023-03-29T19:52:00.873Z,10.97
2023-03-29T19:54:29.307Z,12.10
2023-03-29T19:56:57.848Z,8.73
2023-03-29T19:59:26.688Z,9.00
2023-03-29T20:01:56.885Z,9.80
2023-03-29T20:04:28.832Z,9.00
2023-03-29T20:06:57.762Z,9.53
2023-03-29T20:09:26.196Z,8.07
2023-03-29T20:11:54.607Z,9.30
2023-03-29T20:14:23.068Z,7.27
2023-03-29T20:16:52.089Z,8.07
2023-03-29T20:19:24.074Z,9.73
2023-03-29T20:21:57.343Z,7.43
2023-03-29T20:24:26.509Z,6.60
2023-03-29T20:26:54.894Z,9.67
2023-03-29T20:29:23.271Z,7.53
2023-03-29T20:31:51.760Z,5.03
2023-03-29T20:34:20.217Z,5.87
2023-03-29T20:36:48.963Z,5.37
2023-03-29T20:39:18.909Z,7.13
2023-03-29T20:41:48.746Z,5.77
2023-03-29T20:44:18.484Z,5.33
2023-03-29T20:47:03.469Z,4.43
2023-03-29T20:49:37.082Z,8.17
2023-03-29T20:52:08.347Z,3.83
2023-03-29T20:54:38.750Z,4.93
2023-03-29T20:57:08.030Z,3.80
2023-03-29T20:59:38.008Z,5.27
2023-03-29T21:02:06.640Z,6.27
2023-03-29T21:04:36.054Z,4.37
2023-03-29T21:07:05.181Z,5.30
2023-03-29T21:09:34.633Z,7.07
2023-03-29T21:12:04.823Z,6.00
2023-03-29T21:14:33.401Z,5.23
2023-03-29T21:17:01.850Z,3.93
2023-03-29T21:19:30.263Z,4.77
2023-03-29T21:21:58.990Z,5.03
2023-03-29T21:24:27.365Z,6.20
2023-03-29T21:26:55.760Z,9.43
2023-03-29T21:29:25.569Z,5.30
2023-03-29T21:31:54.041Z,7.53
2023-03-29T21:34:22.582Z,3.63
2023-03-29T21:36:51.143Z,7.20
2023-03-29T21:39:19.604Z,6.57
2023-03-29T21:41:48.185Z,8.97
2023-03-29T21:44:16.928Z,5.90
2023-03-29T21:46:46.922Z,4.87
2023-03-29T21:49:15.375Z,6.60
2023-03-29T21:51:43.850Z,3.83
2023-03-29T21:54:12.485Z,6.13
2023-03-29T21:56:40.922Z,6.27
2023-03-29T21:59:09.375Z,5.70
2023-03-29T22:01:37.777Z,5.60
2023-03-29T22:04:07.558Z,4.10
2023-03-29T22:06:36.283Z,5.63
2023-03-29T22:09:05.136Z,7.50
2023-03-29T22:11:34.659Z,5.57
2023-03-29T22:14:04.140Z,5.77
2023-03-29T22:16:32.602Z,6.47
2023-03-29T22:19:01.144Z,5.67
2023-03-29T22:21:31.981Z,4.87
2023-03-29T22:24:01.272Z,4.73
2023-03-29T22:26:30.861Z,5.43
2023-03-29T22:29:00.107Z,4.07
2023-03-29T22:31:29.304Z,6.17
2023-03-29T22:33:58.495Z,6.77
2023-03-29T22:36:28.282Z,5.07
2023-03-29T22:38:58.328Z,5.23
2023-03-29T22:41:27.631Z,4.83
2023-03-29T22:43:57.329Z,6.57
2023-03-29T22:46:26.356Z,4.73
2023-03-29T22:48:55.055Z,6.87
2023-03-29T22:51:23.504Z,7.27
2023-03-29T22:53:52.045Z,5.50
2023-03-29T22:56:21.871Z,6.27
2023-03-29T22:58:50.852Z,5.37
2023-03-29T23:01:19.284Z,4.60
2023-03-29T23:03:47.672Z,8.60
2023-03-29T23:06:16.219Z,4.43
2023-03-29T23:08:44.712Z,4.87
2023-03-29T23:11:13.088Z,5.90
2023-03-29T23:13:43.000Z,6.40
2023-03-29T23:16:11.520Z,6.87
2023-03-29T23:18:39.937Z,5.57
2023-03-29T23:21:09.069Z,6.07
2023-03-29T23:23:37.551Z,4.73
2023-03-29T23:26:06.426Z,4.60
2023-03-29T23:28:35.380Z,7.47
2023-03-29T23:31:06.303Z,3.80
2023-03-29T23:33:35.873Z,6.57
2023-03-29T23:36:05.509Z,4.27
2023-03-29T23:38:34.469Z,4.03
2023-03-29T23:41:03.902Z,5.47
2023-03-29T23:43:33.338Z,7.73
2023-03-29T23:46:02.472Z,5.93
2023-03-29T23:48:32.714Z,5.63
2023-03-29T23:51:01.343Z,7.23
2023-03-29T23:53:30.191Z,6.97
2023-03-29T23:56:00.360Z,5.87
2023-03-29T23:58:29.139Z,5.73
